createdAt,value
2018-05-04T00:01:03.195Z,7.20
2018-05-04T00:02:02.926Z,8.20
2018-05-04T00:03:56.025Z,10.50
2018-05-04T00:04:55.803Z,9.60
2018-05-04T00:06:49.383Z,11.10
2018-05-04T00:07:49.736Z,10.20
2018-05-04T00:09:42.275Z,11.30
2018-05-04T00:10:42.020Z,12.00
2018-05-04T00:12:35.073Z,7.90
2018-05-04T00:13:34.875Z,11.30
2018-05-04T00:15:28.262Z,8.80
2018-05-04T00:16:28.215Z,7.10
2018-05-04T00:18:21.617Z,10.30
2018-05-04T00:19:21.578Z,11.20
2018-05-04T00:21:14.705Z,9.10
2018-05-04T00:22:14.450Z,10.40
2018-05-04T00:24:07.566Z,9.90
2018-05-04T00:25:07.291Z,9.30
2018-05-04T00:27:00.923Z,9.20
2018-05-04T00:28:00.668Z,13.50
2018-05-04T00:29:54.224Z,11.00
2018-05-04T00:30:54.589Z,7.10
2018-05-04T00:32:47.057Z,10.00
2018-05-04T00:33:46.973Z,11.50
2018-05-04T00:35:39.880Z,8.60
2018-05-04T00:36:39.873Z,7.80
2018-05-04T00:38:32.984Z,11.80
2018-05-04T00:39:32.690Z,9.20
2018-05-04T00:41:27.395Z,11.80
2018-05-04T00:42:26.034Z,9.70
2018-05-04T00:44:19.160Z,12.20
2018-05-04T00:45:19.498Z,8.50
2018-05-04T00:47:12.558Z,7.80
2018-05-04T00:48:12.250Z,11.30
2018-05-04T00:50:05.720Z,10.40
2018-05-04T00:51:05.109Z,12.70
2018-05-04T00:52:58.163Z,11.80
2018-05-04T00:53:57.966Z,8.80
2018-05-04T00:55:50.972Z,10.10
2018-05-04T00:56:50.846Z,7.80
2018-05-04T00:58:43.899Z,11.60
2018-05-04T00:59:43.688Z,8.00
2018-05-04T01:01:37.143Z,9.90
2018-05-04T01:02:37.034Z,11.60
2018-05-04T01:04:29.944Z,11.60
2018-05-04T01:05:29.919Z,13.50
2018-05-04T01:07:23.095Z,12.20
2018-05-04T01:08:22.765Z,10.40
2018-05-04T01:10:15.718Z,10.80
2018-05-04T01:11:15.611Z,11.50
2018-05-04T01:13:09.200Z,10.50
2018-05-04T01:14:09.547Z,12.40
2018-05-04T01:16:02.346Z,18.00
2018-05-04T01:17:02.909Z,10.70
2018-05-04T01:18:55.901Z,16.50
2018-05-04T01:19:55.702Z,11.40
2018-05-04T01:21:48.836Z,11.30
2018-05-04T01:22:48.562Z,14.00
2018-05-04T01:24:41.445Z,13.10
2018-05-04T01:25:41.425Z,13.20
2018-05-04T01:27:34.965Z,14.80
2018-05-04T01:28:34.772Z,14.60
2018-05-04T01:30:28.353Z,13.10
2018-05-04T01:31:28.108Z,14.30
2018-05-04T01:33:21.252Z,14.50
2018-05-04T01:34:20.979Z,13.00
2018-05-04T01:36:14.513Z,13.60
2018-05-04T01:37:14.326Z,14.10
2018-05-04T01:39:07.439Z,12.00
2018-05-04T01:40:07.163Z,13.30
2018-05-04T01:42:00.239Z,12.90
2018-05-04T01:43:00.070Z,11.10
2018-05-04T01:44:53.211Z,15.60
2018-05-04T01:45:52.981Z,16.80
2018-05-04T01:47:46.056Z,13.60
2018-05-04T01:48:45.870Z,15.90
2018-05-04T01:50:38.846Z,12.20
2018-05-04T01:51:38.946Z,13.20
2018-05-04T01:53:31.642Z,11.60
2018-05-04T01:54:31.707Z,11.90
2018-05-04T01:56:25.304Z,10.70
2018-05-04T01:57:24.439Z,12.00
2018-05-04T01:59:17.497Z,15.50
2018-05-04T02:00:17.283Z,12.30
2018-05-04T02:02:10.369Z,20.90
2018-05-04T02:03:10.408Z,17.90
2018-05-04T02:05:03.189Z,20.40
2018-05-04T02:06:03.015Z,22.30
2018-05-04T02:07:56.418Z,20.40
2018-05-04T02:08:56.351Z,23.20
2018-05-04T02:10:49.428Z,31.50
2018-05-04T02:11:49.211Z,29.30
2018-05-04T02:13:42.757Z,39.30
2018-05-04T02:14:42.574Z,33.10
2018-05-04T02:16:35.603Z,30.50
2018-05-04T02:17:35.453Z,29.40
2018-05-04T02:19:28.997Z,35.60
2018-05-04T02:20:28.777Z,33.00
2018-05-04T02:22:21.908Z,35.90
2018-05-04T02:23:22.214Z,39.10
2018-05-04T02:25:15.018Z,40.90
2018-05-04T02:26:14.983Z,35.70
2018-05-04T02:28:07.991Z,35.20
2018-05-04T02:29:07.850Z,33.60
2018-05-04T02:31:00.829Z,27.90
2018-05-04T02:32:00.706Z,21.80
2018-05-04T02:33:53.601Z,75.40
2018-05-04T02:34:53.558Z,59.20
2018-05-04T02:36:47.088Z,43.90
2018-05-04T02:37:46.917Z,33.50
2018-05-04T02:39:39.919Z,31.20
2018-05-04T02:40:39.779Z,31.30
2018-05-04T02:42:32.889Z,35.40
2018-05-04T02:43:32.655Z,34.70
2018-05-04T02:45:25.708Z,32.30
2018-05-04T02:46:25.482Z,30.80
2018-05-04T02:48:18.896Z,40.70
2018-05-04T02:49:18.832Z,42.80
2018-05-04T02:51:12.349Z,37.70
2018-05-04T02:52:12.186Z,40.60
2018-05-04T02:54:05.610Z,41.30
2018-05-04T02:55:05.533Z,43.50
2018-05-04T02:56:58.428Z,37.50
2018-05-04T02:57:58.408Z,29.30
2018-05-04T02:59:51.285Z,31.50
2018-05-04T03:00:51.267Z,32.50
2018-05-04T03:02:44.801Z,31.80
2018-05-04T03:03:44.626Z,43.20
2018-05-04T03:05:38.596Z,40.80
2018-05-04T03:06:37.956Z,36.90
2018-05-04T03:08:32.475Z,33.10
2018-05-04T03:09:32.316Z,30.40
2018-05-04T03:11:25.295Z,30.80
2018-05-04T03:12:25.167Z,32.00
2018-05-04T03:14:18.185Z,28.50
2018-05-04T03:15:18.022Z,27.50
2018-05-04T03:17:10.989Z,19.40
2018-05-04T03:18:10.878Z,19.00
2018-05-04T03:20:04.258Z,24.10
2018-05-04T03:21:04.233Z,22.90
2018-05-04T03:22:57.208Z,20.70
2018-05-04T03:23:57.078Z,25.20
2018-05-04T03:25:50.044Z,20.20
2018-05-04T03:26:49.935Z,19.40
2018-05-04T03:28:42.899Z,17.70
2018-05-04T03:29:43.380Z,18.30
2018-05-04T03:31:36.363Z,19.20
2018-05-04T03:32:36.724Z,21.70
2018-05-04T03:34:29.527Z,18.10
2018-05-04T03:35:29.508Z,23.90
2018-05-04T03:37:23.020Z,18.90
2018-05-04T03:38:22.892Z,16.70
2018-05-04T03:40:15.734Z,17.90
2018-05-04T03:41:15.709Z,20.70
2018-05-04T03:43:09.330Z,21.90
2018-05-04T03:44:09.161Z,23.80
2018-05-04T03:46:01.437Z,18.00
2018-05-04T03:47:01.429Z,18.70
2018-05-04T03:48:55.914Z,18.50
2018-05-04T03:49:55.964Z,19.80
2018-05-04T03:51:49.200Z,19.50
2018-05-04T03:52:49.149Z,21.10
2018-05-04T03:54:42.449Z,21.60
2018-05-04T03:55:42.247Z,18.80
2018-05-04T03:57:35.433Z,22.00
2018-05-04T03:58:35.374Z,21.40
2018-05-04T04:00:33.342Z,24.30
2018-05-04T04:01:28.910Z,18.50
2018-05-04T04:03:22.325Z,23.30
2018-05-04T04:04:22.074Z,20.50
2018-05-04T04:06:15.835Z,21.90
2018-05-04T04:07:15.426Z,19.60
2018-05-04T04:09:09.395Z,19.20
2018-05-04T04:10:08.792Z,19.00
2018-05-04T04:12:06.556Z,22.00
2018-05-04T04:13:03.145Z,21.50
2018-05-04T04:14:56.572Z,23.80
2018-05-04T04:15:56.493Z,23.90
2018-05-04T04:17:49.898Z,23.10
2018-05-04T04:18:49.840Z,23.00
2018-05-04T04:20:42.744Z,24.70
2018-05-04T04:21:43.286Z,25.60
2018-05-04T04:23:36.084Z,23.10
2018-05-04T04:24:36.053Z,23.40
2018-05-04T04:26:29.020Z,23.60
2018-05-04T04:27:28.908Z,22.10
2018-05-04T04:29:21.865Z,22.10
2018-05-04T04:30:21.778Z,23.30
2018-05-04T04:32:14.848Z,22.10
2018-05-04T04:33:14.644Z,21.80
2018-05-04T04:35:09.005Z,21.40
2018-05-04T04:36:09.010Z,23.90
2018-05-04T04:38:02.686Z,22.20
2018-05-04T04:39:02.356Z,21.50
2018-05-04T04:40:57.786Z,17.90
2018-05-04T04:41:55.686Z,20.10
2018-05-04T04:43:51.878Z,20.20
2018-05-04T04:44:51.624Z,21.50
2018-05-04T04:46:45.349Z,20.60
2018-05-04T04:47:44.960Z,24.30
2018-05-04T04:49:38.760Z,20.30
2018-05-04T04:50:38.935Z,21.70
2018-05-04T04:52:32.064Z,21.00
2018-05-04T04:53:31.660Z,20.60
2018-05-04T04:55:24.622Z,20.00
2018-05-04T04:56:24.924Z,23.20
2018-05-04T04:58:17.601Z,19.20
2018-05-04T04:59:17.534Z,20.60
2018-05-04T05:01:10.528Z,18.40
2018-05-04T05:02:10.502Z,20.60
2018-05-04T05:04:08.715Z,20.60
2018-05-04T05:05:08.438Z,19.60
2018-05-04T05:07:01.712Z,20.00
2018-05-04T05:08:01.672Z,20.40
2018-05-04T05:09:59.125Z,21.30
2018-05-04T05:10:58.115Z,20.80
2018-05-04T05:12:52.007Z,21.40
2018-05-04T05:13:50.960Z,20.90
2018-05-04T05:15:44.431Z,19.90
2018-05-04T05:16:44.335Z,21.80
2018-05-04T05:18:37.982Z,18.50
2018-05-04T05:19:37.681Z,19.60
2018-05-04T05:21:31.101Z,19.90
2018-05-04T05:22:31.623Z,16.70
2018-05-04T05:24:24.247Z,14.60
2018-05-04T05:25:24.202Z,17.10
2018-05-04T05:27:17.650Z,16.10
2018-05-04T05:28:17.596Z,16.90
2018-05-04T05:30:10.847Z,16.70
2018-05-04T05:31:10.652Z,10.50
2018-05-04T05:33:03.785Z,13.60
2018-05-04T05:34:03.524Z,14.30
2018-05-04T05:35:56.571Z,22.30
2018-05-04T05:36:56.994Z,18.60
2018-05-04T05:38:50.051Z,11.70
2018-05-04T05:39:49.738Z,14.60
2018-05-04T05:41:42.994Z,14.80
2018-05-04T05:42:42.802Z,13.80
2018-05-04T05:44:36.077Z,14.30
2018-05-04T05:45:35.489Z,11.10
2018-05-04T05:47:28.743Z,12.10
2018-05-04T05:48:28.368Z,15.40
2018-05-04T05:50:21.762Z,13.60
2018-05-04T05:51:21.972Z,11.70
2018-05-04T05:53:14.730Z,11.20
2018-05-04T05:54:14.601Z,13.40
2018-05-04T05:56:08.144Z,11.90
2018-05-04T05:57:08.527Z,15.00
2018-05-04T05:59:01.523Z,11.90
2018-05-04T06:00:01.351Z,13.70
2018-05-04T06:01:54.768Z,14.70
2018-05-04T06:02:54.737Z,15.80
2018-05-04T06:04:48.397Z,13.00
2018-05-04T06:05:48.090Z,14.70
2018-05-04T06:07:42.285Z,12.10
2018-05-04T06:08:41.487Z,12.80
2018-05-04T06:10:34.652Z,17.80
2018-05-04T06:11:34.597Z,12.40
2018-05-04T06:13:28.991Z,13.00
2018-05-04T06:14:28.724Z,15.20
2018-05-04T06:16:21.929Z,15.80
2018-05-04T06:17:21.893Z,10.60
2018-05-04T06:19:15.288Z,11.20
2018-05-04T06:20:15.351Z,16.10
2018-05-04T06:22:08.682Z,14.30
2018-05-04T06:23:08.247Z,12.90
2018-05-04T06:25:01.652Z,15.00
2018-05-04T06:26:01.516Z,12.20
2018-05-04T06:27:54.236Z,14.60
2018-05-04T06:28:54.446Z,16.60
2018-05-04T06:30:47.897Z,11.50
2018-05-04T06:31:47.516Z,14.20
2018-05-04T06:33:41.252Z,14.00
2018-05-04T06:34:41.237Z,13.20
2018-05-04T06:36:34.272Z,12.00
2018-05-04T06:37:34.159Z,12.50
2018-05-04T06:39:27.511Z,11.10
2018-05-04T06:40:27.473Z,9.90
2018-05-04T06:42:20.881Z,10.60
2018-05-04T06:43:20.572Z,11.00
2018-05-04T06:45:14.261Z,11.30
2018-05-04T06:46:14.248Z,14.90
2018-05-04T06:48:07.188Z,11.50
2018-05-04T06:49:06.863Z,13.90
2018-05-04T06:51:00.571Z,10.60
2018-05-04T06:52:00.591Z,10.20
2018-05-04T06:53:53.975Z,14.60
2018-05-04T06:54:53.954Z,13.40
2018-05-04T06:56:46.942Z,12.90
2018-05-04T06:57:46.806Z,11.40
2018-05-04T06:59:40.245Z,11.80
2018-05-04T07:00:40.224Z,12.20
2018-05-04T07:02:34.183Z,12.20
2018-05-04T07:03:33.251Z,13.20
2018-05-04T07:05:26.239Z,12.40
2018-05-04T07:06:27.115Z,9.90
2018-05-04T07:08:19.878Z,14.20
2018-05-04T07:09:19.871Z,14.60
2018-05-04T07:11:12.743Z,12.50
2018-05-04T07:12:12.406Z,12.60
2018-05-04T07:14:06.117Z,15.10
2018-05-04T07:15:06.102Z,14.10
2018-05-04T07:16:59.512Z,14.40
2018-05-04T07:17:59.482Z,13.70
2018-05-04T07:19:52.221Z,11.10
2018-05-04T07:20:52.405Z,12.40
2018-05-04T07:22:45.299Z,14.80
2018-05-04T07:23:45.286Z,16.10
2018-05-04T07:25:38.958Z,16.30
2018-05-04T07:26:38.662Z,12.90
2018-05-04T07:28:31.236Z,11.20
2018-05-04T07:29:31.242Z,12.40
2018-05-04T07:31:25.044Z,12.20
2018-05-04T07:32:24.905Z,13.80
2018-05-04T07:34:18.286Z,16.50
2018-05-04T07:35:18.252Z,11.30
2018-05-04T07:37:11.716Z,12.80
2018-05-04T07:38:12.134Z,13.10
2018-05-04T07:40:04.594Z,15.50
2018-05-04T07:41:04.592Z,17.40
2018-05-04T07:42:58.000Z,11.80
2018-05-04T07:43:58.028Z,14.40
2018-05-04T07:45:51.359Z,14.30
2018-05-04T07:46:51.321Z,13.30
2018-05-04T07:48:44.271Z,14.40
2018-05-04T07:49:44.272Z,17.30
2018-05-04T07:51:37.707Z,13.50
2018-05-04T07:52:37.592Z,12.90
2018-05-04T07:54:31.006Z,12.70
2018-05-04T07:55:30.978Z,15.70
2018-05-04T07:57:23.977Z,12.80
2018-05-04T07:58:23.897Z,14.40
2018-05-04T08:00:16.730Z,10.90
2018-05-04T08:01:16.460Z,10.10
2018-05-04T08:03:09.660Z,9.90
2018-05-04T08:04:09.640Z,11.90
2018-05-04T08:06:02.285Z,9.10
2018-05-04T08:07:03.183Z,6.60
2018-05-04T08:08:56.560Z,14.40
2018-05-04T08:09:56.522Z,10.50
2018-05-04T08:11:49.895Z,10.10
2018-05-04T08:12:49.588Z,10.30
2018-05-04T08:14:44.262Z,8.70
2018-05-04T08:15:44.231Z,10.20
2018-05-04T08:17:37.360Z,9.60
2018-05-04T08:18:37.699Z,10.20
2018-05-04T08:20:30.508Z,9.00
2018-05-04T08:21:30.514Z,9.30
2018-05-04T08:23:24.185Z,9.90
2018-05-04T08:24:24.452Z,11.30
2018-05-04T08:26:17.985Z,9.40
2018-05-04T08:27:17.428Z,13.70
2018-05-04T08:29:10.254Z,8.50
2018-05-04T08:30:10.290Z,10.10
2018-05-04T08:32:03.609Z,14.70
2018-05-04T08:33:03.573Z,10.60
2018-05-04T08:34:57.080Z,9.10
2018-05-04T08:35:56.929Z,10.70
2018-05-04T08:37:49.873Z,8.30
2018-05-04T08:38:49.528Z,10.20
2018-05-04T08:40:43.245Z,9.30
2018-05-04T08:41:43.227Z,10.40
2018-05-04T08:43:36.605Z,8.40
2018-05-04T08:44:36.590Z,7.80
2018-05-04T08:46:30.028Z,9.50
2018-05-04T08:47:29.964Z,8.00
2018-05-04T08:49:23.322Z,9.60
2018-05-04T08:50:23.030Z,10.60
2018-05-04T08:52:16.776Z,9.70
2018-05-04T08:53:16.697Z,10.00
2018-05-04T08:55:10.089Z,13.40
2018-05-04T08:56:10.013Z,17.10
2018-05-04T08:58:03.591Z,9.40
2018-05-04T08:59:03.161Z,10.10
2018-05-04T09:00:56.329Z,10.60
2018-05-04T09:01:56.339Z,8.30
2018-05-04T09:03:49.712Z,8.50
2018-05-04T09:04:49.415Z,10.10
2018-05-04T09:06:43.673Z,12.90
2018-05-04T09:07:43.143Z,9.40
2018-05-04T09:09:35.980Z,7.30
2018-05-04T09:10:35.886Z,7.90
2018-05-04T09:12:29.354Z,8.20
2018-05-04T09:13:29.318Z,10.40
2018-05-04T09:15:22.721Z,9.70
2018-05-04T09:16:23.268Z,11.10
2018-05-04T09:18:15.623Z,11.60
2018-05-04T09:19:15.593Z,10.70
2018-05-04T09:21:08.955Z,8.70
2018-05-04T09:22:08.905Z,12.90
2018-05-04T09:24:01.813Z,11.50
2018-05-04T09:25:01.850Z,7.80
2018-05-04T09:26:56.307Z,8.60
2018-05-04T09:27:55.170Z,9.90
2018-05-04T09:29:48.077Z,8.40
2018-05-04T09:30:48.166Z,7.50
2018-05-04T09:32:41.578Z,13.10
2018-05-04T09:33:40.975Z,10.40
2018-05-04T09:35:34.378Z,11.80
2018-05-04T09:36:34.380Z,10.20
2018-05-04T09:38:27.799Z,9.30
2018-05-04T09:39:27.468Z,10.50
2018-05-04T09:41:20.753Z,9.70
2018-05-04T09:42:20.367Z,7.20
2018-05-04T09:44:13.724Z,10.30
2018-05-04T09:45:14.027Z,8.80
2018-05-04T09:47:07.319Z,8.40
2018-05-04T09:48:07.351Z,9.30
2018-05-04T09:50:00.780Z,9.20
2018-05-04T09:51:00.742Z,9.60
2018-05-04T09:52:54.706Z,10.30
2018-05-04T09:53:54.105Z,9.20
2018-05-04T09:55:47.028Z,11.50
2018-05-04T09:56:46.658Z,11.90
2018-05-04T09:58:39.591Z,11.40
2018-05-04T09:59:39.864Z,11.50
2018-05-04T10:01:33.012Z,10.20
2018-05-04T10:02:32.751Z,11.00
2018-05-04T10:04:26.149Z,8.50
2018-05-04T10:05:26.084Z,12.00
2018-05-04T10:07:19.515Z,8.30
2018-05-04T10:08:19.466Z,11.20
2018-05-04T10:10:12.855Z,10.00
2018-05-04T10:11:12.772Z,11.10
2018-05-04T10:13:05.812Z,9.40
2018-05-04T10:14:05.995Z,11.00
2018-05-04T10:15:58.767Z,10.90
2018-05-04T10:16:58.666Z,8.40
2018-05-04T10:18:52.013Z,8.60
2018-05-04T10:19:51.776Z,9.10
2018-05-04T10:21:44.689Z,9.20
2018-05-04T10:22:44.620Z,11.50
2018-05-04T10:24:38.396Z,10.40
2018-05-04T10:25:38.266Z,10.60
2018-05-04T10:27:32.291Z,11.90
2018-05-04T10:28:31.627Z,11.40
2018-05-04T10:30:25.163Z,12.10
2018-05-04T10:31:25.151Z,10.40
2018-05-04T10:33:18.467Z,10.00
2018-05-04T10:34:18.115Z,12.00
2018-05-04T10:36:11.343Z,8.70
2018-05-04T10:37:11.224Z,8.40
2018-05-04T10:39:04.254Z,12.20
2018-05-04T10:40:04.184Z,13.20
2018-05-04T10:41:57.095Z,9.40
2018-05-04T10:42:56.777Z,13.60
2018-05-04T10:44:51.476Z,9.30
2018-05-04T10:45:51.396Z,10.80
2018-05-04T10:47:44.350Z,9.40
2018-05-04T10:48:44.296Z,10.10
2018-05-04T10:50:37.347Z,8.40
2018-05-04T10:51:37.309Z,9.90
2018-05-04T10:53:30.752Z,10.20
2018-05-04T10:54:30.640Z,10.00
2018-05-04T10:56:23.574Z,10.00
2018-05-04T10:57:23.534Z,10.70
2018-05-04T10:59:16.638Z,8.20
2018-05-04T11:00:16.953Z,8.00
2018-05-04T11:02:10.308Z,8.80
2018-05-04T11:03:10.200Z,11.50
2018-05-04T11:05:03.206Z,10.00
2018-05-04T11:06:03.153Z,10.20
2018-05-04T11:07:56.519Z,13.50
2018-05-04T11:08:56.195Z,10.90
2018-05-04T11:10:49.907Z,9.20
2018-05-04T11:11:49.983Z,15.70
2018-05-04T11:13:42.812Z,9.80
2018-05-04T11:14:42.449Z,9.60
2018-05-04T11:16:36.284Z,10.60
2018-05-04T11:17:35.829Z,10.40
2018-05-04T11:19:28.796Z,8.40
2018-05-04T11:20:29.265Z,10.10
2018-05-04T11:22:21.941Z,12.40
2018-05-04T11:23:21.648Z,10.70
2018-05-04T11:25:14.792Z,13.00
2018-05-04T11:26:14.465Z,16.50
2018-05-04T11:28:07.919Z,10.50
2018-05-04T11:29:07.615Z,20.20
2018-05-04T11:31:00.803Z,14.40
2018-05-04T11:32:00.524Z,14.40
2018-05-04T11:33:54.139Z,17.90
2018-05-04T11:34:54.158Z,14.50
2018-05-04T11:36:47.558Z,23.80
2018-05-04T11:37:47.260Z,16.00
2018-05-04T11:39:40.987Z,11.70
2018-05-04T11:40:40.953Z,15.60
2018-05-04T11:42:34.038Z,11.30
2018-05-04T11:43:34.275Z,16.40
2018-05-04T11:45:27.694Z,10.90
2018-05-04T11:46:27.739Z,12.30
2018-05-04T11:48:21.105Z,10.50
2018-05-04T11:49:20.738Z,11.30
2018-05-04T11:51:13.674Z,7.40
2018-05-04T11:52:15.474Z,7.10
2018-05-04T11:54:07.328Z,9.70
2018-05-04T11:55:07.048Z,10.00
2018-05-04T11:57:00.673Z,7.80
2018-05-04T11:58:00.369Z,7.60
2018-05-04T11:59:54.058Z,10.00
2018-05-04T12:00:54.132Z,12.30
2018-05-04T12:02:47.505Z,11.30
2018-05-04T12:03:47.458Z,10.20
2018-05-04T12:05:40.627Z,11.40
2018-05-04T12:06:40.350Z,8.50
2018-05-04T12:08:34.296Z,9.10
2018-05-04T12:09:33.212Z,9.10
2018-05-04T12:11:26.149Z,10.70
2018-05-04T12:12:26.089Z,11.90
2018-05-04T12:14:19.455Z,11.20
2018-05-04T12:15:19.439Z,11.60
2018-05-04T12:17:12.906Z,10.70
2018-05-04T12:18:12.807Z,9.80
2018-05-04T12:20:06.661Z,7.40
2018-05-04T12:21:06.168Z,11.20
2018-05-04T12:22:59.315Z,13.00
2018-05-04T12:23:59.557Z,9.20
2018-05-04T12:25:52.436Z,7.10
2018-05-04T12:26:52.393Z,9.50
2018-05-04T12:28:45.367Z,10.70
2018-05-04T12:29:45.267Z,9.10
2018-05-04T12:31:38.996Z,10.80
2018-05-04T12:32:38.204Z,11.50
2018-05-04T12:34:31.295Z,10.50
2018-05-04T12:35:31.521Z,8.40
2018-05-04T12:37:25.016Z,8.20
2018-05-04T12:38:24.653Z,7.30
2018-05-04T12:40:18.050Z,9.50
2018-05-04T12:41:18.313Z,8.60
2018-05-04T12:43:11.181Z,8.00
2018-05-04T12:44:11.195Z,10.10
2018-05-04T12:46:04.715Z,7.00
2018-05-04T12:47:04.710Z,9.40
2018-05-04T12:48:57.995Z,10.30
2018-05-04T12:49:57.974Z,8.30
2018-05-04T12:51:50.974Z,7.90
2018-05-04T12:52:50.946Z,7.60
2018-05-04T12:54:43.942Z,7.60
2018-05-04T12:55:43.536Z,7.80
2018-05-04T12:57:36.722Z,9.50
2018-05-04T12:58:36.730Z,7.60
2018-05-04T13:00:30.051Z,7.20
2018-05-04T13:01:30.133Z,10.00
2018-05-04T13:03:23.472Z,9.00
2018-05-04T13:04:23.231Z,8.60
2018-05-04T13:06:16.868Z,9.40
2018-05-04T13:07:16.528Z,10.70
2018-05-04T13:09:09.758Z,10.40
2018-05-04T13:10:09.400Z,9.00
2018-05-04T13:12:02.639Z,9.20
2018-05-04T13:13:02.291Z,8.50
2018-05-04T13:14:56.017Z,9.10
2018-05-04T13:15:55.953Z,7.80
2018-05-04T13:17:48.588Z,9.30
2018-05-04T13:18:49.081Z,9.10
2018-05-04T13:20:42.202Z,9.40
2018-05-04T13:21:41.918Z,8.90
2018-05-04T13:23:34.858Z,8.00
2018-05-04T13:24:35.152Z,9.80
2018-05-04T13:26:28.512Z,6.50
2018-05-04T13:27:28.788Z,8.90
2018-05-04T13:29:21.416Z,9.30
2018-05-04T13:30:21.040Z,7.80
2018-05-04T13:32:14.685Z,10.40
2018-05-04T13:33:14.714Z,13.30
2018-05-04T13:35:08.165Z,8.70
2018-05-04T13:36:07.794Z,9.80
2018-05-04T13:38:01.047Z,7.80
2018-05-04T13:39:00.742Z,9.80
2018-05-04T13:40:54.494Z,10.10
2018-05-04T13:41:54.436Z,6.40
2018-05-04T13:43:47.774Z,5.80
2018-05-04T13:44:47.476Z,8.10
2018-05-04T13:46:40.846Z,9.80
2018-05-04T13:47:40.797Z,9.00
2018-05-04T13:49:34.559Z,5.20
2018-05-04T13:50:34.453Z,5.30
2018-05-04T13:52:27.394Z,7.10
2018-05-04T13:53:27.052Z,7.30
2018-05-04T13:55:20.850Z,7.50
2018-05-04T13:56:19.987Z,6.80
2018-05-04T13:58:13.123Z,7.60
2018-05-04T13:59:12.881Z,6.10
2018-05-04T14:01:06.523Z,6.10
2018-05-04T14:02:07.038Z,7.80
2018-05-04T14:03:59.936Z,7.50
2018-05-04T14:04:59.849Z,7.10
2018-05-04T14:06:53.312Z,7.60
2018-05-04T14:07:53.203Z,7.70
2018-05-04T14:09:46.233Z,4.40
2018-05-04T14:10:46.308Z,8.50
2018-05-04T14:12:40.342Z,8.00
2018-05-04T14:13:39.368Z,7.80
2018-05-04T14:15:32.974Z,7.20
2018-05-04T14:16:32.667Z,8.40
2018-05-04T14:18:27.378Z,8.50
2018-05-04T14:19:26.743Z,5.50
2018-05-04T14:21:19.663Z,6.10
2018-05-04T14:22:19.639Z,6.70
2018-05-04T14:24:12.510Z,7.70
2018-05-04T14:25:12.243Z,6.40
2018-05-04T14:27:05.432Z,7.10
2018-05-04T14:28:05.366Z,6.50
2018-05-04T14:29:58.301Z,6.10
2018-05-04T14:30:58.223Z,7.50
2018-05-04T14:32:51.131Z,5.40
2018-05-04T14:33:51.137Z,5.80
2018-05-04T14:35:44.546Z,6.90
2018-05-04T14:36:44.189Z,7.30
2018-05-04T14:38:37.909Z,8.50
2018-05-04T14:39:37.863Z,8.50
2018-05-04T14:41:30.595Z,6.40
2018-05-04T14:42:30.774Z,7.40
2018-05-04T14:44:24.186Z,5.60
2018-05-04T14:45:23.812Z,4.30
2018-05-04T14:47:17.561Z,7.00
2018-05-04T14:48:17.208Z,6.10
2018-05-04T14:50:10.896Z,6.50
2018-05-04T14:51:10.840Z,5.80
2018-05-04T14:53:03.980Z,6.00
2018-05-04T14:54:03.938Z,6.40
2018-05-04T14:55:57.672Z,6.90
2018-05-04T14:56:57.345Z,6.60
2018-05-04T14:58:51.042Z,7.50
2018-05-04T14:59:51.049Z,6.00
2018-05-04T15:01:43.892Z,6.30
2018-05-04T15:02:43.565Z,6.20
2018-05-04T15:04:37.262Z,9.00
2018-05-04T15:05:37.234Z,7.10
2018-05-04T15:07:30.622Z,9.90
2018-05-04T15:08:30.303Z,5.50
2018-05-04T15:10:24.104Z,6.40
2018-05-04T15:11:24.022Z,5.50
2018-05-04T15:13:16.918Z,4.60
2018-05-04T15:14:16.874Z,5.60
2018-05-04T15:16:10.372Z,7.20
2018-05-04T15:17:10.283Z,7.90
2018-05-04T15:19:03.035Z,6.10
2018-05-04T15:20:03.166Z,9.00
2018-05-04T15:21:56.532Z,6.50
2018-05-04T15:24:15.005Z,6.70
2018-05-04T15:25:12.513Z,6.80
2018-05-04T15:27:05.710Z,7.70
2018-05-04T15:28:05.496Z,6.50
2018-05-04T15:29:58.708Z,5.20
2018-05-04T15:30:58.966Z,7.70
2018-05-04T15:32:51.574Z,5.70
2018-05-04T15:33:51.531Z,4.80
2018-05-04T15:35:44.979Z,6.30
2018-05-04T15:36:44.672Z,5.80
2018-05-04T15:38:38.457Z,6.40
2018-05-04T15:39:38.103Z,8.90
2018-05-04T15:41:31.285Z,5.10
2018-05-04T15:42:31.002Z,5.10
2018-05-04T15:44:27.176Z,5.00
2018-05-04T15:45:27.130Z,6.40
2018-05-04T15:47:20.504Z,9.40
2018-05-04T15:48:20.758Z,8.10
2018-05-04T15:50:13.886Z,5.00
2018-05-04T15:51:13.842Z,9.90
2018-05-04T15:53:07.388Z,7.90
2018-05-04T15:54:07.316Z,5.40
2018-05-04T15:55:59.628Z,8.30
2018-05-04T15:57:00.683Z,8.80
2018-05-04T15:58:53.077Z,9.10
2018-05-04T15:59:53.054Z,6.70
2018-05-04T16:01:47.808Z,5.60
2018-05-04T16:02:47.588Z,5.40
2018-05-04T16:04:40.592Z,8.20
2018-05-04T16:05:41.345Z,6.30
2018-05-04T16:07:35.603Z,8.30
2018-05-04T16:08:34.653Z,7.90
2018-05-04T16:10:27.646Z,7.10
2018-05-04T16:11:28.273Z,5.10
2018-05-04T16:13:23.549Z,9.70
2018-05-04T16:14:20.868Z,8.50
2018-05-04T16:16:14.451Z,7.80
2018-05-04T16:17:14.014Z,7.50
2018-05-04T16:19:07.769Z,7.30
2018-05-04T16:20:07.372Z,7.90
2018-05-04T16:22:01.164Z,6.50
2018-05-04T16:23:00.956Z,6.80
2018-05-04T16:24:55.290Z,6.20
2018-05-04T16:25:54.180Z,5.90
2018-05-04T16:27:50.629Z,9.70
2018-05-04T16:28:51.437Z,6.70
2018-05-04T16:30:46.274Z,10.00
2018-05-04T16:31:46.884Z,6.20
2018-05-04T16:33:43.015Z,8.10
2018-05-04T16:34:42.093Z,9.10
2018-05-04T16:36:35.589Z,7.70
2018-05-04T16:37:36.671Z,8.70
2018-05-04T16:39:28.558Z,7.30
2018-05-04T16:40:28.865Z,7.00
2018-05-04T16:42:22.577Z,8.80
2018-05-04T16:43:22.471Z,6.90
2018-05-04T16:46:06.347Z,5.50
2018-05-04T16:47:06.404Z,5.40
2018-05-04T16:49:01.046Z,7.60
2018-05-04T16:50:00.701Z,7.20
2018-05-04T16:51:54.230Z,10.60
2018-05-04T16:52:53.972Z,7.00
2018-05-04T16:54:46.777Z,5.00
2018-05-04T16:55:46.206Z,5.90
2018-05-04T16:57:39.475Z,9.80
2018-05-04T16:58:39.395Z,8.40
2018-05-04T17:00:32.810Z,5.50
2018-05-04T17:01:33.082Z,9.00
2018-05-04T17:03:26.206Z,8.40
2018-05-04T17:04:25.860Z,7.90
2018-05-04T17:06:19.564Z,9.10
2018-05-04T17:07:19.552Z,7.40
2018-05-04T17:09:12.462Z,7.60
2018-05-04T17:10:12.429Z,10.40
2018-05-04T17:12:06.074Z,6.00
2018-05-04T17:13:07.457Z,9.20
2018-05-04T17:14:59.410Z,8.80
2018-05-04T17:15:59.226Z,9.40
2018-05-04T17:17:52.636Z,10.50
2018-05-04T17:18:52.221Z,6.60
2018-05-04T17:20:45.121Z,10.70
2018-05-04T17:21:45.109Z,8.20
2018-05-04T17:23:39.075Z,8.60
2018-05-04T17:24:38.770Z,6.70
2018-05-04T17:26:32.892Z,8.80
2018-05-04T17:27:32.758Z,6.20
2018-05-04T17:29:26.249Z,5.90
2018-05-04T17:30:25.238Z,9.90
2018-05-04T17:32:18.992Z,8.10
2018-05-04T17:33:18.916Z,8.00
2018-05-04T17:35:12.334Z,8.10
2018-05-04T17:36:12.259Z,8.70
2018-05-04T17:38:05.678Z,10.10
2018-05-04T17:39:05.604Z,8.50
2018-05-04T17:40:59.006Z,6.40
2018-05-04T17:41:58.725Z,8.30
2018-05-04T17:43:54.961Z,4.90
2018-05-04T17:44:54.914Z,11.10
2018-05-04T17:46:48.351Z,9.30
2018-05-04T17:47:47.805Z,5.90
2018-05-04T17:49:42.924Z,8.80
2018-05-04T17:50:41.166Z,7.90
2018-05-04T17:52:34.302Z,9.80
2018-05-04T17:53:34.620Z,9.10
2018-05-04T17:55:28.022Z,8.10
2018-05-04T17:56:27.613Z,5.40
2018-05-04T17:58:23.599Z,10.40
2018-05-04T17:59:20.804Z,8.90
2018-05-04T18:01:14.204Z,7.80
2018-05-04T18:02:14.198Z,5.20
2018-05-04T18:04:07.659Z,6.20
2018-05-04T18:05:07.571Z,8.80
2018-05-04T18:07:01.527Z,6.50
2018-05-04T18:08:00.986Z,6.40
2018-05-04T18:09:56.385Z,7.50
2018-05-04T18:10:55.114Z,8.20
2018-05-04T18:12:51.220Z,7.80
2018-05-04T18:13:51.417Z,6.90
2018-05-04T18:15:45.234Z,6.10
2018-05-04T18:16:44.289Z,9.00
2018-05-04T18:18:38.159Z,6.10
2018-05-04T18:19:37.780Z,7.70
2018-05-04T18:21:31.738Z,6.40
2018-05-04T18:22:31.306Z,5.90
2018-05-04T18:24:24.886Z,8.40
2018-05-04T18:25:24.770Z,5.50
2018-05-04T18:27:17.693Z,5.80
2018-05-04T18:28:17.900Z,7.00
2018-05-04T18:30:10.555Z,5.20
2018-05-04T18:31:10.700Z,8.60
2018-05-04T18:33:04.333Z,8.70
2018-05-04T18:34:03.797Z,7.80
2018-05-04T18:35:56.738Z,4.90
2018-05-04T18:36:56.495Z,8.50
2018-05-04T18:38:50.625Z,8.00
2018-05-04T18:39:50.004Z,6.70
2018-05-04T18:41:44.420Z,6.00
2018-05-04T18:42:45.113Z,5.30
2018-05-04T18:44:37.417Z,6.50
2018-05-04T18:45:37.044Z,7.30
2018-05-04T18:47:31.164Z,8.80
2018-05-04T18:48:30.573Z,5.90
2018-05-04T18:50:24.099Z,6.10
2018-05-04T18:51:23.747Z,7.20
2018-05-04T18:53:17.487Z,9.10